New Buffalo, MI

10:44 AM EST on March 03, 2015 (GMT -0500)
South Bend Regional | Change Station
CLOSE
Current Station
Airport
Location: South Bend,
Elevation: 774 ft
Nearby Weather Stations
Active Advisory: Winter Weather Advisory

Elev 774 ft 41.71 °N, 86.32 °W | Updated 14 minutes ago

Ice Pellets
Ice Pellets
28 °F
Feels Like 16 °F
N
17
Wind Variable Wind from SSE
Gusts 24 mph

Today
High -- | Low -- °F
--% Chance of Precip.
Yesterday
High -- | Low -- °F
Precip. -- in
7:19 AM 6:39 PM
Waxing Gibbous, 96% visible
Pressure 29.82 in
Visibility 2.0 miles
Clouds Overcast 900 ft
Windchill 16 °F
Dew Point 24 °F
Humidity 85%
Rainfall 0.04 in
Snow Depth Not available.
UV 1 out of 12
Pollen .40 out of 12
Air Quality Not available.
Flu Activity Not available.
SPECI KSBN 031530Z 15015G21KT 2SM -FZRA BR OVC009 M02/M04 A2982 RMK AO2 UPE1456B25E26FZRAB26 PRESFR P0000 I1001 T10221044

More Conditions Fewer Conditions

Pressure 29.82 in
Visibility 2.0 miles
Clouds Overcast 900 ft
Windchill 16 °F
Dew Point 24 °F
Humidity 85%
Rainfall 0.04 in
Snow Depth Not available.
UV 1 out of 12
Pollen .40 out of 12
Air Quality Not available.
Flu Activity Not available.
SPECI KSBN 031530Z 15015G21KT 2SM -FZRA BR OVC009 M02/M04 A2982 RMK AO2 UPE1456B25E26FZRAB26 PRESFR P0000 I1001 T10221044

More Conditions Fewer Conditions

10-Day Weather Forecast

Almanac

Astronomy

Mar. 03, 2015 Rise Set
Actual Time
Civil Twilight
Nautical Twilight
Astronomical Twilight
Moon
Length of Visible Light
Length of Day
Tomorrow will be .
, % of the Moon is Illuminated

Today's Extremes

State Highs State Lows

Community

WunderPhotos

Upload Photos

1,802,149 photos uploaded!

WunderBlogs® & News

Nearby

Air Quality

  Air Quality AQ Index Pollutant
Not available.

Snow Depth

Station Depth Elevation

Earthquake Activity

City Distance Mag. Time & Date
Minimum magnitude displayed is 2.5.

Coastal Water Temperatures

Place Temperature

Nearby Weather Stations

Winter Weather Advisory
Statement as of 3:53 AM CST on March 03, 2015

... Winter Weather Advisory now in effect until 1 PM EST /noon
CST/ this afternoon...

Hazardous weather...

* a mix of snow... sleet and freezing rain can be expected this
   morning. Precipitation will become all freezing rain by mid to late
   morning.

* Light snow and sleet accumulations up to an inch are possible.
   Ice accumulations up to a tenth of an inch are also possible.

* As temperatures warm above freezing early this afternoon... icing
   from freezing rain will end.

Impacts...

* roads... overpasses and intersections will be icy and
   dangerous.

* Sidewalks and driveways will also be icy and dangerous.

* Morning commute will be affected.

Precautionary/preparedness actions...

A Winter Weather Advisory means that periods of snow... sleet... or
freezing rain will cause travel difficulties. Be prepared for
dangerous driving conditions and limited visibility... and use
extra caution while driving.